Time;durP1;ratioP1;P1;durP2;ratioP2;P2;SDS_P1;SDS_P2;PMS_P1;PMS_P2;Temp;Humidity;BMP_temperature;BMP_pressure;BME280_temperature;BME280_humidity;BME280_pressure;Samples;Min_cycle;Max_cycle;Signal;HPM_P1;HPM_P2
2023/04/12 00:00:43;;;;;;;3.00;2.10;;;;;;;;;;5048864;28;20235;-52
2023/04/12 00:03:10;;;;;;;2.53;1.93;;;;;;;;;;5034526;28;20238;-52
2023/04/12 00:05:37;;;;;;;2.97;2.03;;;;;;;;;;5051841;28;20254;-52
2023/04/12 00:08:03;;;;;;;1.97;1.57;;;;;;;;;;5045914;28;20242;-52
2023/04/12 00:10:32;;;;;;;3.73;2.03;;;;;;;;;;5039869;28;20235;-51
2023/04/12 00:12:58;;;;;;;4.40;1.70;;;;;;;;;;5048011;28;20888;-51
2023/04/12 00:15:25;;;;;;;4.13;1.97;;;;;;;;;;5054375;28;20921;-53
2023/04/12 00:17:51;;;;;;;4.40;2.40;;;;;;;;;;5041632;28;20228;-51
2023/04/12 00:20:18;;;;;;;3.37;1.83;;;;;;;;;;5034606;28;20326;-51
2023/04/12 00:22:47;;;;;;;4.47;2.00;;;;;;;;;;5047506;28;20277;-51
2023/04/12 00:25:14;;;;;;;2.47;1.90;;;;;;;;;;5043203;28;20244;-51
2023/04/12 00:27:42;;;;;;;2.47;2.00;;;;;;;;;;5049622;28;20243;-52
2023/04/12 00:30:10;;;;;;;3.10;2.90;;;;;;;;;;5047124;28;20232;-52
2023/04/12 00:32:36;;;;;;;2.30;2.10;;;;;;;;;;5042861;28;20232;-51
2023/04/12 00:35:03;;;;;;;2.20;1.73;;;;;;;;;;5042341;28;20669;-52
2023/04/12 00:37:30;;;;;;;3.47;2.10;;;;;;;;;;5034442;28;20612;-51
2023/04/12 00:39:56;;;;;;;5.03;1.80;;;;;;;;;;5039439;28;20238;-51
2023/04/12 00:42:23;;;;;;;2.07;1.80;;;;;;;;;;5045530;28;20509;-51
2023/04/12 00:44:51;;;;;;;3.67;2.03;;;;;;;;;;5044746;28;20232;-53
2023/04/12 00:47:18;;;;;;;2.63;1.60;;;;;;;;;;5045061;28;20236;-53
2023/04/12 00:49:44;;;;;;;3.17;2.23;;;;;;;;;;5044921;28;20769;-53
2023/04/12 00:52:13;;;;;;;2.17;1.70;;;;;;;;;;5037024;28;20232;-53
2023/04/12 00:54:40;;;;;;;2.50;1.60;;;;;;;;;;5040918;28;20285;-52
2023/04/12 00:57:07;;;;;;;2.53;2.33;;;;;;;;;;5042134;28;20276;-53
2023/04/12 00:59:34;;;;;;;6.17;2.33;;;;;;;;;;5045350;28;20262;-52
2023/04/12 01:02:02;;;;;;;4.17;1.90;;;;;;;;;;5043143;28;20228;-53
2023/04/12 01:04:28;;;;;;;1.80;1.60;;;;;;;;;;5042134;28;20929;-53
2023/04/12 01:07:06;;;;;;;2.80;1.97;;;;;;;;;;5041884;28;20228;-52
2023/04/12 01:09:36;;;;;;;2.67;2.10;;;;;;;;;;5049431;28;20229;-51
2023/04/12 01:12:07;;;;;;;2.43;1.73;;;;;;;;;;5049716;28;20251;-51
2023/04/12 01:14:36;;;;;;;2.77;1.97;;;;;;;;;;5047889;28;20238;-51
2023/04/12 01:17:06;;;;;;;2.87;1.97;;;;;;;;;;5056467;28;20761;-51
2023/04/12 01:19:45;;;;;;;2.20;1.87;;;;;;;;;;5050868;28;20239;-52
2023/04/12 01:22:17;;;;;;;2.10;2.00;;;;;;;;;;5064075;28;20241;-52
2023/04/12 01:24:51;;;;;;;3.23;2.47;;;;;;;;;;5047812;28;20887;-51
2023/04/12 01:27:32;;;;;;;4.60;2.33;;;;;;;;;;5039177;28;20243;-51
2023/04/12 01:30:01;;;;;;;2.30;1.67;;;;;;;;;;5045018;28;20238;-53
2023/04/12 01:32:28;;;;;;;5.93;2.10;;;;;;;;;;5041396;28;20775;-53
2023/04/12 01:34:55;;;;;;;3.43;1.57;;;;;;;;;;5043395;28;20232;-52
2023/04/12 01:37:22;;;;;;;2.73;2.00;;;;;;;;;;5043998;28;20243;-52
2023/04/12 01:39:49;;;;;;;3.00;1.50;;;;;;;;;;5025200;28;20252;-52
2023/04/12 01:42:18;;;;;;;2.13;1.70;;;;;;;;;;5041742;28;20318;-51
2023/04/12 01:44:46;;;;;;;4.37;2.40;;;;;;;;;;5036934;28;20815;-52
2023/04/12 01:47:13;;;;;;;2.93;2.20;;;;;;;;;;5038960;28;20236;-52
2023/04/12 01:49:45;;;;;;;3.53;1.80;;;;;;;;;;5042480;28;20233;-52
2023/04/12 01:52:14;;;;;;;1.70;1.60;;;;;;;;;;5043129;28;20219;-51
2023/04/12 01:54:42;;;;;;;2.00;1.80;;;;;;;;;;5044972;28;20231;-52
2023/04/12 01:57:09;;;;;;;2.20;2.00;;;;;;;;;;5045755;28;20240;-52
2023/04/12 01:59:38;;;;;;;2.43;1.67;;;;;;;;;;5040819;28;20231;-53
2023/04/12 02:02:06;;;;;;;3.40;1.73;;;;;;;;;;5035455;28;20613;-51
2023/04/12 02:04:33;;;;;;;2.87;2.10;;;;;;;;;;5022785;28;20313;-52
2023/04/12 02:07:00;;;;;;;2.80;1.90;;;;;;;;;;5045818;28;20234;-53
2023/04/12 02:09:27;;;;;;;3.10;2.53;;;;;;;;;;5046109;28;20231;-52
2023/04/12 02:11:55;;;;;;;2.33;1.80;;;;;;;;;;5043258;28;20224;-53
2023/04/12 02:14:21;;;;;;;2.30;2.10;;;;;;;;;;5036156;28;20666;-52
2023/04/12 02:16:49;;;;;;;2.87;2.10;;;;;;;;;;5043427;28;20231;-51
2023/04/12 02:19:18;;;;;;;4.93;3.33;;;;;;;;;;5041886;28;20262;-52
2023/04/12 02:21:45;;;;;;;2.30;2.10;;;;;;;;;;5047416;28;20227;-53
2023/04/12 02:24:12;;;;;;;3.23;2.37;;;;;;;;;;5047652;28;20316;-52
2023/04/12 02:26:39;;;;;;;2.33;2.23;;;;;;;;;;5035329;28;20285;-52
2023/04/12 02:29:06;;;;;;;2.40;2.20;;;;;;;;;;5055677;28;20416;-51
2023/04/12 02:31:33;;;;;;;4.07;2.10;;;;;;;;;;5036931;28;20236;-52
2023/04/12 02:33:59;;;;;;;3.20;2.80;;;;;;;;;;5043943;28;20247;-51
2023/04/12 02:36:27;;;;;;;3.80;1.80;;;;;;;;;;5042005;28;20247;-51
2023/04/12 02:38:54;;;;;;;2.50;2.10;;;;;;;;;;5042086;28;20232;-52
2023/04/12 02:41:22;;;;;;;5.33;2.07;;;;;;;;;;5044750;28;20309;-52
2023/04/12 02:43:48;;;;;;;3.23;2.47;;;;;;;;;;5037909;28;20321;-52
2023/04/12 02:46:16;;;;;;;3.17;2.23;;;;;;;;;;5043728;28;20238;-53
2023/04/12 02:48:46;;;;;;;4.00;2.17;;;;;;;;;;5034322;28;20228;-51
2023/04/12 02:51:12;;;;;;;3.07;2.37;;;;;;;;;;5044725;28;20736;-52
2023/04/12 02:53:41;;;;;;;3.50;3.20;;;;;;;;;;5037448;28;20236;-53
2023/04/12 02:56:08;;;;;;;6.30;2.57;;;;;;;;;;5043924;28;20236;-56
2023/04/12 02:58:35;;;;;;;3.97;2.63;;;;;;;;;;5034223;28;20228;-54
2023/04/12 03:01:06;;;;;;;5.27;3.33;;;;;;;;;;5033472;28;20236;-52
2023/04/12 03:03:33;;;;;;;2.60;2.40;;;;;;;;;;5043225;28;20281;-52
2023/04/12 03:05:59;;;;;;;3.73;2.50;;;;;;;;;;5042302;28;20239;-51
2023/04/12 03:08:27;;;;;;;3.47;2.73;;;;;;;;;;5040715;28;20236;-52
2023/04/12 03:10:55;;;;;;;2.43;2.20;;;;;;;;;;5042703;28;20232;-52
2023/04/12 03:13:22;;;;;;;2.47;2.03;;;;;;;;;;5046658;28;20230;-51
2023/04/12 03:15:49;;;;;;;5.47;2.57;;;;;;;;;;5042897;28;20263;-52
2023/04/12 03:18:16;;;;;;;3.87;2.70;;;;;;;;;;5035000;28;20315;-50
2023/04/12 03:20:42;;;;;;;4.53;2.40;;;;;;;;;;5045440;28;20228;-51
2023/04/12 03:23:09;;;;;;;4.67;2.73;;;;;;;;;;5049351;28;20235;-51
2023/04/12 03:25:37;;;;;;;2.90;2.60;;;;;;;;;;5049854;28;20231;-54
2023/04/12 03:28:05;;;;;;;6.70;2.93;;;;;;;;;;5039329;28;20716;-53
2023/04/12 03:30:32;;;;;;;5.10;2.67;;;;;;;;;;5045790;28;20236;-51
2023/04/12 03:32:59;;;;;;;4.23;2.60;;;;;;;;;;5046396;28;20729;-51
2023/04/12 03:35:26;;;;;;;6.60;3.13;;;;;;;;;;5047068;28;20702;-51
2023/04/12 03:37:52;;;;;;;3.73;2.73;;;;;;;;;;5047813;28;20242;-51
2023/04/12 03:40:20;;;;;;;3.23;2.20;;;;;;;;;;5046267;28;20301;-52
2023/04/12 03:42:47;;;;;;;2.53;2.03;;;;;;;;;;5043720;28;20235;-52
2023/04/12 03:45:15;;;;;;;2.97;2.73;;;;;;;;;;5048793;28;20228;-55
2023/04/12 03:47:41;;;;;;;6.57;2.70;;;;;;;;;;5047413;28;20707;-52
2023/04/12 03:50:09;;;;;;;4.13;2.50;;;;;;;;;;5045646;28;20330;-53
2023/04/12 03:52:36;;;;;;;4.33;3.03;;;;;;;;;;5048810;28;20254;-51
2023/04/12 03:55:04;;;;;;;3.13;2.47;;;;;;;;;;5046300;28;20232;-51
2023/04/12 03:57:31;;;;;;;3.90;2.73;;;;;;;;;;5034335;28;20451;-55
2023/04/12 03:59:58;;;;;;;4.50;2.63;;;;;;;;;;5037817;28;20956;-52
2023/04/12 04:02:26;;;;;;;1.97;1.87;;;;;;;;;;5043912;28;20231;-50
2023/04/12 04:04:53;;;;;;;4.47;2.43;;;;;;;;;;5045324;28;20242;-51
2023/04/12 04:07:20;;;;;;;4.07;2.73;;;;;;;;;;5045306;28;20240;-52
2023/04/12 04:09:46;;;;;;;5.63;2.90;;;;;;;;;;5047993;28;20231;-52
2023/04/12 04:12:13;;;;;;;5.17;2.50;;;;;;;;;;5035516;28;20321;-52
2023/04/12 04:14:39;;;;;;;4.23;2.53;;;;;;;;;;5044029;28;20228;-53
2023/04/12 04:17:07;;;;;;;3.73;2.83;;;;;;;;;;5050210;28;20542;-53
2023/04/12 04:19:35;;;;;;;5.30;2.60;;;;;;;;;;5046257;28;20234;-54
2023/04/12 04:22:03;;;;;;;4.77;2.60;;;;;;;;;;5045629;28;20318;-51
2023/04/12 04:24:30;;;;;;;6.50;2.70;;;;;;;;;;5043722;28;20234;-50
2023/04/12 04:26:57;;;;;;;3.43;2.17;;;;;;;;;;5045743;28;20232;-52
2023/04/12 04:29:24;;;;;;;8.37;3.10;;;;;;;;;;5047905;28;20227;-52
2023/04/12 04:31:52;;;;;;;3.37;2.50;;;;;;;;;;5047788;28;20227;-52
2023/04/12 04:34:20;;;;;;;5.93;2.97;;;;;;;;;;5043073;28;20601;-50
2023/04/12 04:36:49;;;;;;;4.03;2.97;;;;;;;;;;5044203;28;20232;-52
2023/04/12 04:39:16;;;;;;;2.77;2.57;;;;;;;;;;5037727;28;20255;-50
2023/04/12 04:41:43;;;;;;;3.77;2.83;;;;;;;;;;5041985;28;20247;-50
2023/04/12 04:44:10;;;;;;;3.27;2.97;;;;;;;;;;5047262;28;20242;-51
2023/04/12 04:46:38;;;;;;;3.93;2.50;;;;;;;;;;5039108;28;20235;-52
2023/04/12 04:49:05;;;;;;;4.17;3.77;;;;;;;;;;5041732;28;20325;-51
2023/04/12 04:51:32;;;;;;;4.97;3.50;;;;;;;;;;5042536;28;20765;-52
2023/04/12 04:54:01;;;;;;;5.73;3.50;;;;;;;;;;5044954;28;20485;-52
2023/04/12 04:56:27;;;;;;;4.00;3.40;;;;;;;;;;5044533;28;21854;-52
2023/04/12 04:58:54;;;;;;;2.97;2.70;;;;;;;;;;5044890;28;20231;-51
2023/04/12 05:01:24;;;;;;;4.70;3.27;;;;;;;;;;5043377;28;20267;-53
2023/04/12 05:03:51;;;;;;;4.27;3.17;;;;;;;;;;5041940;28;20236;-52
2023/04/12 05:06:18;;;;;;;6.63;3.47;;;;;;;;;;5048248;28;20454;-51
2023/04/12 05:08:45;;;;;;;5.70;4.30;;;;;;;;;;5042865;28;20232;-50
2023/04/12 05:11:13;;;;;;;3.80;3.43;;;;;;;;;;5038579;28;20885;-51
2023/04/12 05:13:39;;;;;;;7.87;3.90;;;;;;;;;;5046084;28;20241;-51
2023/04/12 05:16:06;;;;;;;6.57;4.17;;;;;;;;;;5044014;28;20241;-51
2023/04/12 05:18:33;;;;;;;6.07;4.80;;;;;;;;;;5036978;28;20228;-50
2023/04/12 05:21:02;;;;;;;7.30;4.77;;;;;;;;;;5047042;28;21291;-51
2023/04/12 05:23:29;;;;;;;4.33;3.53;;;;;;;;;;5045231;28;20238;-51
2023/04/12 05:25:55;;;;;;;5.30;4.40;;;;;;;;;;5039214;28;20227;-51
2023/04/12 05:28:27;;;;;;;6.27;4.47;;;;;;;;;;5044375;28;20309;-51
2023/04/12 05:30:53;;;;;;;6.60;3.90;;;;;;;;;;5046259;28;20766;-50
2023/04/12 05:33:20;;;;;;;3.87;2.97;;;;;;;;;;5048077;28;20714;-51
2023/04/12 05:35:49;;;;;;;7.37;4.10;;;;;;;;;;5055698;28;20695;-52
2023/04/12 05:38:16;;;;;;;7.00;4.33;;;;;;;;;;5044671;28;20236;-51
2023/04/12 05:40:43;;;;;;;4.90;3.83;;;;;;;;;;5034029;28;20315;-51
2023/04/12 05:43:11;;;;;;;7.67;4.17;;;;;;;;;;5033747;28;20236;-51
2023/04/12 05:45:41;;;;;;;4.97;3.53;;;;;;;;;;5042497;28;20236;-55
2023/04/12 05:48:08;;;;;;;7.67;4.33;;;;;;;;;;5040272;28;20236;-53
2023/04/12 05:50:34;;;;;;;4.67;4.20;;;;;;;;;;5045782;28;20242;-52
2023/04/12 05:53:01;;;;;;;4.47;3.67;;;;;;;;;;5046761;28;20718;-51
2023/04/12 05:55:28;;;;;;;7.43;3.73;;;;;;;;;;5049820;28;20382;-50
2023/04/12 05:57:54;;;;;;;3.97;3.63;;;;;;;;;;5034686;28;20238;-51
2023/04/12 06:00:22;;;;;;;5.43;4.00;;;;;;;;;;5054881;28;20367;-52
2023/04/12 06:02:51;;;;;;;9.50;5.07;;;;;;;;;;5054623;28;20284;-52
2023/04/12 06:05:18;;;;;;;3.87;3.57;;;;;;;;;;5057089;28;20237;-51
2023/04/12 06:07:45;;;;;;;3.50;3.20;;;;;;;;;;5049014;28;20259;-52
2023/04/12 06:10:13;;;;;;;6.33;3.83;;;;;;;;;;5047598;28;20240;-52
2023/04/12 06:12:40;;;;;;;6.37;3.63;;;;;;;;;;5052165;28;20228;-52
2023/04/12 06:15:07;;;;;;;5.67;3.73;;;;;;;;;;5047745;28;20238;-53
2023/04/12 06:17:34;;;;;;;5.87;3.50;;;;;;;;;;5044269;28;20705;-52
2023/04/12 06:20:03;;;;;;;4.90;3.47;;;;;;;;;;5044334;28;20238;-52
2023/04/12 06:22:30;;;;;;;6.50;3.80;;;;;;;;;;5045057;28;20445;-51
2023/04/12 06:24:57;;;;;;;8.77;3.93;;;;;;;;;;5039802;28;20235;-52
2023/04/12 06:27:24;;;;;;;5.97;3.90;;;;;;;;;;5032032;28;20232;-51
2023/04/12 06:29:51;;;;;;;7.80;3.93;;;;;;;;;;5034482;28;20662;-52
2023/04/12 06:32:17;;;;;;;8.57;3.90;;;;;;;;;;5042648;28;20717;-51
2023/04/12 06:34:44;;;;;;;5.63;3.73;;;;;;;;;;5044434;28;20235;-52
2023/04/12 06:37:12;;;;;;;4.57;3.70;;;;;;;;;;5048627;28;20613;-52
2023/04/12 06:39:38;;;;;;;5.67;4.40;;;;;;;;;;5046359;28;20282;-52
2023/04/12 06:42:05;;;;;;;5.00;3.20;;;;;;;;;;5034195;28;20252;-53
2023/04/12 06:44:32;;;;;;;6.13;4.17;;;;;;;;;;5040474;28;20721;-51
2023/04/12 06:46:58;;;;;;;4.23;3.17;;;;;;;;;;5044982;28;20240;-53
2023/04/12 06:49:25;;;;;;;4.87;3.03;;;;;;;;;;5041555;28;20252;-53
2023/04/12 06:51:52;;;;;;;6.30;4.50;;;;;;;;;;5049976;28;20259;-52
2023/04/12 06:54:20;;;;;;;4.60;3.40;;;;;;;;;;5051611;28;20236;-52
2023/04/12 06:56:46;;;;;;;5.50;3.10;;;;;;;;;;5044541;28;20238;-53
2023/04/12 06:59:13;;;;;;;16.13;3.40;;;;;;;;;;5046303;28;20239;-52
2023/04/12 07:01:39;;;;;;;3.40;2.73;;;;;;;;;;5048420;28;20224;-52
2023/04/12 07:04:06;;;;;;;4.77;3.57;;;;;;;;;;5049054;28;20227;-54
2023/04/12 07:06:32;;;;;;;4.47;2.77;;;;;;;;;;5039759;28;20228;-51
2023/04/12 07:08:59;;;;;;;4.50;2.73;;;;;;;;;;5053495;28;20239;-51
2023/04/12 07:11:35;;;;;;;5.50;2.67;;;;;;;;;;5044423;28;20737;-52
2023/04/12 07:14:02;;;;;;;4.63;3.30;;;;;;;;;;5035305;28;20230;-51
2023/04/12 07:16:30;;;;;;;5.33;3.00;;;;;;;;;;5034885;28;20617;-50
2023/04/12 07:18:56;;;;;;;2.37;1.90;;;;;;;;;;5033886;28;20231;-51
2023/04/12 07:21:23;;;;;;;3.07;2.53;;;;;;;;;;5046340;28;20231;-52
2023/04/12 07:23:51;;;;;;;4.87;2.17;;;;;;;;;;5042522;28;20224;-51
2023/04/12 07:26:17;;;;;;;5.80;2.30;;;;;;;;;;5039769;28;20243;-51
2023/04/12 07:28:45;;;;;;;2.63;2.00;;;;;;;;;;5024235;28;20319;-53
2023/04/12 07:31:12;;;;;;;3.33;3.03;;;;;;;;;;5043736;28;20231;-54
2023/04/12 07:33:39;;;;;;;5.77;2.73;;;;;;;;;;5043314;28;20339;-51
2023/04/12 07:36:06;;;;;;;2.43;2.23;;;;;;;;;;5040528;28;20322;-53
2023/04/12 07:38:32;;;;;;;8.33;2.80;;;;;;;;;;5035508;28;20586;-53
2023/04/12 07:40:59;;;;;;;5.33;2.63;;;;;;;;;;5038117;28;20511;-51
2023/04/12 07:43:25;;;;;;;3.33;2.10;;;;;;;;;;5046316;28;20253;-51
2023/04/12 07:45:55;;;;;;;2.67;2.47;;;;;;;;;;5041564;28;20231;-51
2023/04/12 07:48:21;;;;;;;3.67;2.07;;;;;;;;;;5033846;28;20239;-51
2023/04/12 07:50:48;;;;;;;4.67;2.30;;;;;;;;;;5038027;28;20250;-52
2023/04/12 07:53:18;;;;;;;4.37;2.20;;;;;;;;;;5051335;28;20278;-52
2023/04/12 07:55:45;;;;;;;7.40;2.70;;;;;;;;;;5056930;28;20369;-51
2023/04/12 07:58:11;;;;;;;4.50;2.63;;;;;;;;;;5058416;28;20792;-51
2023/04/12 08:00:38;;;;;;;3.27;2.83;;;;;;;;;;5038805;28;20243;-52
2023/04/12 08:03:06;;;;;;;5.07;2.50;;;;;;;;;;5037312;28;20311;-52
2023/04/12 08:05:32;;;;;;;2.40;2.13;;;;;;;;;;5049485;28;20241;-52
2023/04/12 08:07:59;;;;;;;3.63;1.93;;;;;;;;;;5037597;28;20314;-52
2023/04/12 08:10:25;;;;;;;4.93;2.60;;;;;;;;;;5030543;28;20243;-52
2023/04/12 08:12:52;;;;;;;4.17;2.10;;;;;;;;;;5035589;28;20922;-53
2023/04/12 08:15:18;;;;;;;6.77;2.20;;;;;;;;;;5040125;28;20223;-52
2023/04/12 08:17:45;;;;;;;5.47;2.33;;;;;;;;;;5040452;28;20231;-52
2023/04/12 08:20:14;;;;;;;5.97;2.47;;;;;;;;;;5045978;28;20286;-53
2023/04/12 08:22:41;;;;;;;5.13;1.83;;;;;;;;;;5046076;28;20336;-52
2023/04/12 08:25:09;;;;;;;6.87;2.23;;;;;;;;;;5056959;28;20240;-52
2023/04/12 08:27:36;;;;;;;9.70;2.17;;;;;;;;;;5026561;28;20249;-54
2023/04/12 08:30:03;;;;;;;4.63;1.80;;;;;;;;;;5022728;28;20232;-51
2023/04/12 08:32:29;;;;;;;3.07;1.43;;;;;;;;;;5014669;28;20256;-53
2023/04/12 08:34:56;;;;;;;4.30;1.50;;;;;;;;;;5042730;28;20236;-52
2023/04/12 08:37:24;;;;;;;3.80;1.80;;;;;;;;;;5035273;28;20714;-51
2023/04/12 08:39:51;;;;;;;3.10;1.73;;;;;;;;;;5029574;28;20733;-51
2023/04/12 08:42:17;;;;;;;3.33;1.53;;;;;;;;;;5036878;28;20244;-52
2023/04/12 08:44:44;;;;;;;5.32;1.48;;;;;;;;;;5041183;28;20228;-52
2023/04/12 08:47:11;;;;;;;7.00;1.17;;;;;;;;;;5042319;28;20260;-52
2023/04/12 08:49:38;;;;;;;7.40;1.88;;;;;;;;;;5035320;28;20621;-51
2023/04/12 08:52:05;;;;;;;6.22;2.00;;;;;;;;;;5017827;28;20236;-52
2023/04/12 08:54:33;;;;;;;4.60;2.17;;;;;;;;;;5017458;28;20231;-52
2023/04/12 08:57:01;;;;;;;11.83;1.87;;;;;;;;;;5030578;28;20278;-52
2023/04/12 08:59:28;;;;;;;2.10;1.37;;;;;;;;;;5009939;28;20232;-51
2023/04/12 09:01:55;;;;;;;3.08;1.40;;;;;;;;;;5022850;28;20233;-52
2023/04/12 09:04:21;;;;;;;2.40;1.38;;;;;;;;;;5036023;28;20232;-52
2023/04/12 09:06:48;;;;;;;5.38;1.38;;;;;;;;;;5033734;28;20232;-51
2023/04/12 09:09:15;;;;;;;4.72;1.88;;;;;;;;;;5031728;28;20874;-52
2023/04/12 09:11:42;;;;;;;1.92;1.10;;;;;;;;;;5038714;28;20298;-53
2023/04/12 09:14:20;;;;;;;6.40;2.03;;;;;;;;;;5045098;28;20323;-52
2023/04/12 09:16:47;;;;;;;4.97;1.30;;;;;;;;;;5037807;28;20303;-52
2023/04/12 09:19:14;;;;;;;2.78;1.40;;;;;;;;;;5032591;28;20232;-53
2023/04/12 09:21:51;;;;;;;2.67;1.52;;;;;;;;;;5040334;28;20235;-53
2023/04/12 09:24:18;;;;;;;1.90;1.13;;;;;;;;;;5037814;28;20235;-52
2023/04/12 09:26:45;;;;;;;3.67;1.40;;;;;;;;;;5042797;28;20234;-52
2023/04/12 09:29:21;;;;;;;6.05;1.25;;;;;;;;;;5049182;28;20769;-53
2023/04/12 09:31:54;;;;;;;2.92;1.38;;;;;;;;;;5038398;28;20314;-51
2023/04/12 09:34:22;;;;;;;4.60;1.70;;;;;;;;;;5034764;28;20945;-52
2023/04/12 09:36:48;;;;;;;3.40;1.23;;;;;;;;;;5042073;28;20309;-52
2023/04/12 09:39:15;;;;;;;4.55;1.60;;;;;;;;;;5059874;28;20241;-51
2023/04/12 09:41:41;;;;;;;5.07;1.65;;;;;;;;;;5033994;28;20754;-53
2023/04/12 09:44:09;;;;;;;4.45;1.83;;;;;;;;;;5042166;28;20231;-53
2023/04/12 09:46:36;;;;;;;3.30;1.65;;;;;;;;;;5032706;28;20787;-53
2023/04/12 09:49:04;;;;;;;4.50;1.75;;;;;;;;;;5045557;28;20327;-50
2023/04/12 09:51:32;;;;;;;1.90;1.58;;;;;;;;;;5044098;28;20757;-53
2023/04/12 09:54:00;;;;;;;4.85;1.63;;;;;;;;;;5044164;28;20238;-52
2023/04/12 09:56:28;;;;;;;2.70;1.55;;;;;;;;;;5043001;28;20594;-52
2023/04/12 09:58:55;;;;;;;3.17;1.52;;;;;;;;;;5039721;28;20240;-52
2023/04/12 10:01:24;;;;;;;2.45;1.13;;;;;;;;;;5039350;28;20917;-52
2023/04/12 10:03:52;;;;;;;5.70;2.00;;;;;;;;;;5039498;28;20244;-52
2023/04/12 10:06:19;;;;;;;3.03;1.55;;;;;;;;;;5042541;28;20236;-52
2023/04/12 10:08:46;;;;;;;5.13;2.08;;;;;;;;;;5041455;28;20232;-52
2023/04/12 10:11:13;;;;;;;6.10;1.65;;;;;;;;;;5043674;28;20318;-52
2023/04/12 10:13:40;;;;;;;2.05;1.33;;;;;;;;;;5027230;28;29220;-52
2023/04/12 10:16:07;;;;;;;3.47;1.58;;;;;;;;;;5032390;28;20231;-52
2023/04/12 10:18:39;;;;;;;7.45;1.55;;;;;;;;;;5028979;28;20352;-52
2023/04/12 10:21:06;;;;;;;3.72;1.35;;;;;;;;;;5040119;28;20638;-53
2023/04/12 10:23:32;;;;;;;3.85;1.35;;;;;;;;;;5045025;28;20237;-52
2023/04/12 10:26:00;;;;;;;3.67;1.65;;;;;;;;;;5034144;28;20241;-53
2023/04/12 10:28:26;;;;;;;4.15;1.63;;;;;;;;;;5037078;28;20232;-53
2023/04/12 10:30:56;;;;;;;5.35;1.15;;;;;;;;;;5041665;28;20326;-52
2023/04/12 10:33:25;;;;;;;4.10;1.63;;;;;;;;;;5040635;28;20233;-51
2023/04/12 10:35:55;;;;;;;3.78;1.55;;;;;;;;;;5042218;28;20246;-53
2023/04/12 10:38:23;;;;;;;2.80;1.33;;;;;;;;;;5038348;28;20234;-52
2023/04/12 10:41:10;;;;;;;4.18;1.50;;;;;;;;;;5047556;28;20601;-51
2023/04/12 10:43:36;;;;;;;20.40;2.53;;;;;;;;;;5041033;28;20307;-52
2023/04/12 10:46:05;;;;;;;4.75;2.33;;;;;;;;;;5038545;28;20634;-51
2023/04/12 10:48:32;;;;;;;4.35;1.60;;;;;;;;;;5035710;28;20268;-51
2023/04/12 10:51:22;;;;;;;3.03;1.70;;;;;;;;;;5038319;28;20285;-52
2023/04/12 10:53:50;;;;;;;3.65;1.50;;;;;;;;;;5025314;28;20252;-50
2023/04/12 10:56:36;;;;;;;3.95;1.67;;;;;;;;;;5040394;28;20229;-52
2023/04/12 10:59:02;;;;;;;8.38;2.00;;;;;;;;;;5041388;28;20246;-53
2023/04/12 11:01:30;;;;;;;3.72;1.88;;;;;;;;;;5039608;28;20302;-51
2023/04/12 11:04:20;;;;;;;2.55;1.45;;;;;;;;;;5040759;28;20342;-51
2023/04/12 11:06:50;;;;;;;1.98;1.50;;;;;;;;;;5022800;28;20233;-52
2023/04/12 11:09:22;;;;;;;6.97;1.70;;;;;;;;;;5040581;28;20233;-53
2023/04/12 11:11:49;;;;;;;1.50;1.20;;;;;;;;;;5043014;28;20235;-51
2023/04/12 11:14:16;;;;;;;3.17;1.50;;;;;;;;;;5034959;28;20240;-50
2023/04/12 11:17:06;;;;;;;6.18;2.00;;;;;;;;;;5037809;28;20277;-52
2023/04/12 11:19:33;;;;;;;4.78;2.00;;;;;;;;;;5043816;28;20240;-51
2023/04/12 11:22:01;;;;;;;6.68;1.77;;;;;;;;;;5040277;28;20230;-52
2023/04/12 11:24:28;;;;;;;5.45;1.98;;;;;;;;;;5036171;28;20241;-51
2023/04/12 11:26:56;;;;;;;4.05;1.23;;;;;;;;;;5039800;28;20234;-51
2023/04/12 11:29:23;;;;;;;4.18;1.70;;;;;;;;;;5040196;28;20821;-52
2023/04/12 11:31:49;;;;;;;1.98;1.40;;;;;;;;;;5042929;28;20753;-52
2023/04/12 11:34:16;;;;;;;3.08;1.50;;;;;;;;;;5045413;28;20232;-51
2023/04/12 11:36:44;;;;;;;4.22;1.80;;;;;;;;;;5049388;28;20232;-51
2023/04/12 11:39:10;;;;;;;2.50;1.42;;;;;;;;;;5047162;28;20232;-52
2023/04/12 11:41:43;;;;;;;1.95;1.25;;;;;;;;;;5044617;28;20225;-52
2023/04/12 11:44:09;;;;;;;2.28;1.33;;;;;;;;;;5045557;28;20232;-53
2023/04/12 11:46:36;;;;;;;2.50;1.15;;;;;;;;;;5047746;28;20227;-53
2023/04/12 11:49:02;;;;;;;3.20;1.40;;;;;;;;;;5042994;28;20964;-52
2023/04/12 11:51:29;;;;;;;2.38;1.42;;;;;;;;;;5039463;28;20233;-53
2023/04/12 11:53:56;;;;;;;2.75;1.95;;;;;;;;;;5043378;28;20726;-52
2023/04/12 11:56:23;;;;;;;4.40;1.90;;;;;;;;;;5041244;28;20228;-51
2023/04/12 11:58:51;;;;;;;2.40;1.38;;;;;;;;;;5015231;28;20326;-53
2023/04/12 12:01:19;;;;;;;4.10;1.45;;;;;;;;;;5024570;28;20931;-50
2023/04/12 12:03:45;;;;;;;2.95;1.42;;;;;;;;;;5025589;28;20305;-50
2023/04/12 12:06:12;;;;;;;3.42;1.30;;;;;;;;;;5020353;28;20255;-51
2023/04/12 12:08:39;;;;;;;2.53;1.52;;;;;;;;;;5042447;28;20327;-51
2023/04/12 12:11:05;;;;;;;4.05;1.30;;;;;;;;;;5041847;28;20232;-51
2023/04/12 12:13:43;;;;;;;3.20;1.80;;;;;;;;;;5045438;28;20243;-50
2023/04/12 12:16:11;;;;;;;5.30;1.55;;;;;;;;;;5038884;28;20259;-51
2023/04/12 12:18:39;;;;;;;2.40;1.27;;;;;;;;;;5038938;28;20267;-52
2023/04/12 12:21:08;;;;;;;3.70;1.70;;;;;;;;;;5043534;28;20250;-52
2023/04/12 12:23:34;;;;;;;3.53;1.20;;;;;;;;;;5043747;28;20235;-51
2023/04/12 12:26:02;;;;;;;2.67;1.58;;;;;;;;;;5038303;28;20791;-51
2023/04/12 12:28:28;;;;;;;2.35;1.05;;;;;;;;;;5041655;28;20699;-51
2023/04/12 12:30:56;;;;;;;2.33;1.25;;;;;;;;;;5042199;28;20315;-52
2023/04/12 12:33:24;;;;;;;4.53;1.05;;;;;;;;;;5043302;28;20314;-51
2023/04/12 12:35:55;;;;;;;2.75;1.20;;;;;;;;;;5043165;28;20737;-50
2023/04/12 12:38:21;;;;;;;1.73;1.02;;;;;;;;;;5037566;28;20228;-51
2023/04/12 12:40:48;;;;;;;5.88;1.20;;;;;;;;;;5045297;28;20721;-51
2023/04/12 12:43:18;;;;;;;3.80;1.35;;;;;;;;;;5037746;28;20235;-52
2023/04/12 12:45:44;;;;;;;5.63;1.30;;;;;;;;;;5030881;28;20246;-51
2023/04/12 12:48:11;;;;;;;3.00;1.48;;;;;;;;;;5038821;28;20231;-51
2023/04/12 12:50:39;;;;;;;2.53;1.05;;;;;;;;;;5036928;28;20239;-51
2023/04/12 12:53:05;;;;;;;4.20;1.85;;;;;;;;;;5039911;28;20224;-52
2023/04/12 12:55:32;;;;;;;5.25;1.92;;;;;;;;;;5040293;28;20240;-51
2023/04/12 12:57:59;;;;;;;2.58;1.27;;;;;;;;;;5039474;28;20242;-52
2023/04/12 13:00:26;;;;;;;1.83;1.00;;;;;;;;;;5043222;28;20621;-52
2023/04/12 13:02:52;;;;;;;6.75;1.40;;;;;;;;;;5043137;28;20751;-52
2023/04/12 13:05:19;;;;;;;2.45;1.10;;;;;;;;;;5043047;28;20318;-51
2023/04/12 13:07:47;;;;;;;2.13;1.50;;;;;;;;;;5046988;28;20242;-51
2023/04/12 13:10:14;;;;;;;1.80;0.98;;;;;;;;;;5050188;28;20238;-51
2023/04/12 13:12:40;;;;;;;5.95;2.17;;;;;;;;;;5038396;28;20228;-52
2023/04/12 13:15:07;;;;;;;2.47;1.38;;;;;;;;;;5037360;28;22049;-52
2023/04/12 13:17:34;;;;;;;4.20;2.10;;;;;;;;;;5035544;28;20232;-51
2023/04/12 13:20:01;;;;;;;2.97;1.15;;;;;;;;;;5028028;28;20236;-51
2023/04/12 13:22:27;;;;;;;2.97;1.40;;;;;;;;;;5031004;28;20244;-51
2023/04/12 13:24:55;;;;;;;2.70;1.33;;;;;;;;;;5034710;28;20242;-51
2023/04/12 13:27:22;;;;;;;3.95;1.20;;;;;;;;;;5035686;28;20335;-51
2023/04/12 13:29:48;;;;;;;3.03;0.95;;;;;;;;;;5036354;28;20232;-51
2023/04/12 13:32:16;;;;;;;1.70;1.20;;;;;;;;;;5044149;28;20250;-50
2023/04/12 13:34:42;;;;;;;1.58;1.38;;;;;;;;;;5037674;28;20730;-51
2023/04/12 13:37:09;;;;;;;1.35;1.10;;;;;;;;;;5036988;28;20242;-50
2023/04/12 13:39:35;;;;;;;3.63;1.35;;;;;;;;;;5035121;28;20382;-53
2023/04/12 13:42:03;;;;;;;4.25;1.52;;;;;;;;;;5039103;28;20943;-51
2023/04/12 13:44:30;;;;;;;4.40;1.20;;;;;;;;;;5034589;28;20258;-51
2023/04/12 13:46:56;;;;;;;2.53;1.35;;;;;;;;;;5033361;28;20272;-52
2023/04/12 13:49:23;;;;;;;2.17;1.10;;;;;;;;;;5039383;28;20291;-51
2023/04/12 13:51:49;;;;;;;2.80;1.20;;;;;;;;;;5038288;28;20917;-53
2023/04/12 13:54:16;;;;;;;3.20;1.38;;;;;;;;;;5038695;28;20240;-51
2023/04/12 13:56:43;;;;;;;2.17;1.50;;;;;;;;;;5033823;28;20235;-53
2023/04/12 13:59:11;;;;;;;3.13;1.25;;;;;;;;;;5039899;28;20235;-52
2023/04/12 14:01:38;;;;;;;1.95;1.45;;;;;;;;;;5042404;28;20232;-51
2023/04/12 14:04:05;;;;;;;3.47;1.70;;;;;;;;;;5030689;28;20294;-52
2023/04/12 14:06:31;;;;;;;3.90;1.88;;;;;;;;;;5032543;28;20273;-51
2023/04/12 14:08:58;;;;;;;3.53;1.33;;;;;;;;;;5033297;28;20267;-52
2023/04/12 14:11:24;;;;;;;3.20;1.63;;;;;;;;;;5032994;28;20258;-51
2023/04/12 14:13:51;;;;;;;4.30;1.38;;;;;;;;;;5037153;28;20277;-51
2023/04/12 14:16:19;;;;;;;4.82;1.50;;;;;;;;;;5034619;28;20236;-51
2023/04/12 14:18:45;;;;;;;1.80;1.70;;;;;;;;;;5039120;28;20229;-51
2023/04/12 14:21:12;;;;;;;0.85;0.77;;;;;;;;;;5035589;28;20235;-54
2023/04/12 14:23:40;;;;;;;4.88;1.50;;;;;;;;;;5039540;28;20627;-51
2023/04/12 14:26:06;;;;;;;1.83;1.33;;;;;;;;;;5041326;28;20239;-50
2023/04/12 14:28:33;;;;;;;2.00;1.30;;;;;;;;;;5033654;28;20270;-51
2023/04/12 14:31:00;;;;;;;1.90;1.20;;;;;;;;;;5041853;28;20228;-52
2023/04/12 14:33:28;;;;;;;2.67;0.95;;;;;;;;;;5039481;28;20259;-50
2023/04/12 14:35:56;;;;;;;2.00;1.23;;;;;;;;;;5042779;28;20242;-50
2023/04/12 14:38:23;;;;;;;2.55;1.35;;;;;;;;;;5036043;28;20237;-51
2023/04/12 14:40:50;;;;;;;4.60;1.48;;;;;;;;;;5031709;28;20709;-51
2023/04/12 14:43:16;;;;;;;2.03;1.00;;;;;;;;;;5039686;28;20266;-52
2023/04/12 14:45:43;;;;;;;6.65;1.55;;;;;;;;;;5034149;28;20672;-50